sensor_id;sensor_type;location;lat;lon;timestamp;temperature;humidity
14884;DHT22;7534;50.762;7.000;2023-07-09T00:01:21;21.40;99.90
14884;DHT22;7534;50.762;7.000;2023-07-09T00:03:48;21.40;99.90
14884;DHT22;7534;50.762;7.000;2023-07-09T00:06:17;21.30;99.90
14884;DHT22;7534;50.762;7.000;2023-07-09T00:08:45;21.30;99.90
14884;DHT22;7534;50.762;7.000;2023-07-09T00:11:14;21.30;99.90
14884;DHT22;7534;50.762;7.000;2023-07-09T00:13:40;21.30;99.90
14884;DHT22;7534;50.762;7.000;2023-07-09T00:16:17;21.30;99.90
14884;DHT22;7534;50.762;7.000;2023-07-09T00:18:46;21.20;99.90
14884;DHT22;7534;50.762;7.000;2023-07-09T00:21:15;21.20;99.90
14884;DHT22;7534;50.762;7.000;2023-07-09T00:23:41;21.20;99.90
14884;DHT22;7534;50.762;7.000;2023-07-09T00:26:09;21.20;99.90
14884;DHT22;7534;50.762;7.000;2023-07-09T00:28:39;21.20;99.90
14884;DHT22;7534;50.762;7.000;2023-07-09T00:31:13;21.20;99.90
14884;DHT22;7534;50.762;7.000;2023-07-09T00:33:44;21.10;99.90
14884;DHT22;7534;50.762;7.000;2023-07-09T00:36:30;21.10;99.90
14884;DHT22;7534;50.762;7.000;2023-07-09T00:38:57;21.10;99.90
14884;DHT22;7534;50.762;7.000;2023-07-09T00:41:32;21.10;99.90
14884;DHT22;7534;50.762;7.000;2023-07-09T00:49:31;21.00;99.90
14884;DHT22;7534;50.762;7.000;2023-07-09T00:55:10;21.00;99.90
14884;DHT22;7534;50.762;7.000;2023-07-09T00:57:40;21.00;99.90
14884;DHT22;7534;50.762;7.000;2023-07-09T01:00:11;21.10;99.90
14884;DHT22;7534;50.762;7.000;2023-07-09T01:02:44;21.20;99.90
14884;DHT22;7534;50.762;7.000;2023-07-09T01:05:15;21.20;99.90
14884;DHT22;7534;50.762;7.000;2023-07-09T01:07:43;21.10;99.90
14884;DHT22;7534;50.762;7.000;2023-07-09T01:10:15;21.10;99.90
14884;DHT22;7534;50.762;7.000;2023-07-09T01:12:43;21.10;99.90
14884;DHT22;7534;50.762;7.000;2023-07-09T01:15:10;21.10;99.90
14884;DHT22;7534;50.762;7.000;2023-07-09T01:17:36;21.10;99.90
14884;DHT22;7534;50.762;7.000;2023-07-09T01:20:03;21.10;99.90
14884;DHT22;7534;50.762;7.000;2023-07-09T01:22:34;21.00;99.90
14884;DHT22;7534;50.762;7.000;2023-07-09T01:25:04;21.00;99.90
14884;DHT22;7534;50.762;7.000;2023-07-09T01:27:36;21.00;99.90
14884;DHT22;7534;50.762;7.000;2023-07-09T01:30:10;20.90;99.90
14884;DHT22;7534;50.762;7.000;2023-07-09T01:32:42;20.80;99.90
14884;DHT22;7534;50.762;7.000;2023-07-09T01:35:13;20.80;99.90
14884;DHT22;7534;50.762;7.000;2023-07-09T01:37:41;20.70;99.90
14884;DHT22;7534;50.762;7.000;2023-07-09T01:40:10;20.70;99.90
14884;DHT22;7534;50.762;7.000;2023-07-09T01:42:38;20.60;99.90
14884;DHT22;7534;50.762;7.000;2023-07-09T01:45:05;20.60;99.90
14884;DHT22;7534;50.762;7.000;2023-07-09T01:47:32;20.60;99.90
14884;DHT22;7534;50.762;7.000;2023-07-09T01:49:58;20.50;99.90
14884;DHT22;7534;50.762;7.000;2023-07-09T01:52:27;20.50;99.90
14884;DHT22;7534;50.762;7.000;2023-07-09T01:54:55;20.40;99.90
14884;DHT22;7534;50.762;7.000;2023-07-09T01:57:27;20.40;99.90
14884;DHT22;7534;50.762;7.000;2023-07-09T02:00:03;20.40;99.90
14884;DHT22;7534;50.762;7.000;2023-07-09T02:02:31;20.30;99.90
14884;DHT22;7534;50.762;7.000;2023-07-09T02:04:58;20.30;99.90
14884;DHT22;7534;50.762;7.000;2023-07-09T02:07:24;20.30;99.90
14884;DHT22;7534;50.762;7.000;2023-07-09T02:09:51;20.30;99.90
14884;DHT22;7534;50.762;7.000;2023-07-09T02:12:18;20.20;99.90
14884;DHT22;7534;50.762;7.000;2023-07-09T02:14:44;20.20;99.90
14884;DHT22;7534;50.762;7.000;2023-07-09T02:17:12;20.20;99.90
14884;DHT22;7534;50.762;7.000;2023-07-09T02:19:39;20.20;99.90
14884;DHT22;7534;50.762;7.000;2023-07-09T02:22:06;20.10;99.90
14884;DHT22;7534;50.762;7.000;2023-07-09T02:24:33;20.00;99.90
14884;DHT22;7534;50.762;7.000;2023-07-09T02:27:00;20.00;99.90
14884;DHT22;7534;50.762;7.000;2023-07-09T02:29:28;20.00;99.90
14884;DHT22;7534;50.762;7.000;2023-07-09T02:31:56;19.90;99.90
14884;DHT22;7534;50.762;7.000;2023-07-09T02:34:25;19.90;99.90
14884;DHT22;7534;50.762;7.000;2023-07-09T02:36:52;19.90;99.90
14884;DHT22;7534;50.762;7.000;2023-07-09T02:39:19;19.90;99.90
14884;DHT22;7534;50.762;7.000;2023-07-09T02:41:45;19.90;99.90
14884;DHT22;7534;50.762;7.000;2023-07-09T02:44:11;19.90;99.90
14884;DHT22;7534;50.762;7.000;2023-07-09T02:46:37;19.80;99.90
14884;DHT22;7534;50.762;7.000;2023-07-09T02:49:04;19.80;99.90
14884;DHT22;7534;50.762;7.000;2023-07-09T02:51:31;19.80;99.90
14884;DHT22;7534;50.762;7.000;2023-07-09T02:53:59;19.80;99.90
14884;DHT22;7534;50.762;7.000;2023-07-09T02:56:27;19.80;99.90
14884;DHT22;7534;50.762;7.000;2023-07-09T02:58:54;19.80;99.90
14884;DHT22;7534;50.762;7.000;2023-07-09T03:01:20;19.80;99.90
14884;DHT22;7534;50.762;7.000;2023-07-09T03:03:57;19.70;99.90
14884;DHT22;7534;50.762;7.000;2023-07-09T03:06:27;19.70;99.90
14884;DHT22;7534;50.762;7.000;2023-07-09T03:08:53;19.70;99.90
14884;DHT22;7534;50.762;7.000;2023-07-09T03:11:20;19.80;99.90
14884;DHT22;7534;50.762;7.000;2023-07-09T03:13:48;19.70;99.90
14884;DHT22;7534;50.762;7.000;2023-07-09T03:16:14;19.70;99.90
14884;DHT22;7534;50.762;7.000;2023-07-09T03:18:40;19.70;99.90
14884;DHT22;7534;50.762;7.000;2023-07-09T03:21:06;19.70;99.90
14884;DHT22;7534;50.762;7.000;2023-07-09T03:23:32;19.70;99.90
14884;DHT22;7534;50.762;7.000;2023-07-09T03:25:59;19.70;99.90
14884;DHT22;7534;50.762;7.000;2023-07-09T03:28:30;19.70;99.90
14884;DHT22;7534;50.762;7.000;2023-07-09T03:30:57;19.70;99.90
14884;DHT22;7534;50.762;7.000;2023-07-09T03:33:23;19.80;99.90
14884;DHT22;7534;50.762;7.000;2023-07-09T03:35:50;19.70;99.90
14884;DHT22;7534;50.762;7.000;2023-07-09T03:38:17;19.70;99.90
14884;DHT22;7534;50.762;7.000;2023-07-09T03:40:43;19.70;99.90
14884;DHT22;7534;50.762;7.000;2023-07-09T03:43:10;19.70;99.90
14884;DHT22;7534;50.762;7.000;2023-07-09T03:45:37;19.70;99.90
14884;DHT22;7534;50.762;7.000;2023-07-09T03:48:04;19.70;99.90
14884;DHT22;7534;50.762;7.000;2023-07-09T03:50:31;19.80;99.90
14884;DHT22;7534;50.762;7.000;2023-07-09T03:52:57;19.80;99.90
14884;DHT22;7534;50.762;7.000;2023-07-09T03:55:22;19.90;99.90
14884;DHT22;7534;50.762;7.000;2023-07-09T03:57:52;19.90;99.90
14884;DHT22;7534;50.762;7.000;2023-07-09T04:00:19;20.00;99.90
14884;DHT22;7534;50.762;7.000;2023-07-09T04:02:44;20.10;99.90
14884;DHT22;7534;50.762;7.000;2023-07-09T04:05:10;20.20;99.90
14884;DHT22;7534;50.762;7.000;2023-07-09T04:07:37;20.20;99.90
14884;DHT22;7534;50.762;7.000;2023-07-09T04:10:03;20.20;99.90
14884;DHT22;7534;50.762;7.000;2023-07-09T04:12:30;20.40;99.90
14884;DHT22;7534;50.762;7.000;2023-07-09T04:14:56;20.50;99.90
14884;DHT22;7534;50.762;7.000;2023-07-09T04:17:21;20.60;99.90
14884;DHT22;7534;50.762;7.000;2023-07-09T04:19:49;20.70;99.90
14884;DHT22;7534;50.762;7.000;2023-07-09T04:22:16;20.80;99.90
14884;DHT22;7534;50.762;7.000;2023-07-09T04:24:42;20.90;99.90
14884;DHT22;7534;50.762;7.000;2023-07-09T04:27:09;21.00;99.90
14884;DHT22;7534;50.762;7.000;2023-07-09T04:29:35;21.10;99.90
14884;DHT22;7534;50.762;7.000;2023-07-09T04:32:12;21.20;99.90
14884;DHT22;7534;50.762;7.000;2023-07-09T04:34:39;21.40;99.90
14884;DHT22;7534;50.762;7.000;2023-07-09T04:37:10;21.50;99.90
14884;DHT22;7534;50.762;7.000;2023-07-09T04:39:37;21.70;99.90
14884;DHT22;7534;50.762;7.000;2023-07-09T04:42:05;21.80;99.90
14884;DHT22;7534;50.762;7.000;2023-07-09T04:44:31;22.00;99.90
14884;DHT22;7534;50.762;7.000;2023-07-09T04:46:57;22.10;99.90
14884;DHT22;7534;50.762;7.000;2023-07-09T04:49:22;22.40;99.90
14884;DHT22;7534;50.762;7.000;2023-07-09T04:51:48;23.10;99.90
14884;DHT22;7534;50.762;7.000;2023-07-09T04:54:14;24.00;99.10
14884;DHT22;7534;50.762;7.000;2023-07-09T04:56:41;24.80;98.10
14884;DHT22;7534;50.762;7.000;2023-07-09T04:59:11;25.70;96.10
14884;DHT22;7534;50.762;7.000;2023-07-09T05:01:37;26.60;94.30
14884;DHT22;7534;50.762;7.000;2023-07-09T05:04:03;27.30;92.80
14884;DHT22;7534;50.762;7.000;2023-07-09T05:06:29;27.70;92.00
14884;DHT22;7534;50.762;7.000;2023-07-09T05:08:55;27.80;91.50
14884;DHT22;7534;50.762;7.000;2023-07-09T05:11:20;27.60;91.50
14884;DHT22;7534;50.762;7.000;2023-07-09T05:13:46;27.50;91.80
14884;DHT22;7534;50.762;7.000;2023-07-09T05:16:12;27.30;92.10
14884;DHT22;7534;50.762;7.000;2023-07-09T05:18:37;27.10;92.20
14884;DHT22;7534;50.762;7.000;2023-07-09T05:21:03;26.70;92.60
14884;DHT22;7534;50.762;7.000;2023-07-09T05:23:29;26.30;93.30
14884;DHT22;7534;50.762;7.000;2023-07-09T05:25:58;26.20;93.60
14884;DHT22;7534;50.762;7.000;2023-07-09T05:28:25;26.00;93.70
14884;DHT22;7534;50.762;7.000;2023-07-09T05:30:52;26.40;93.80
14884;DHT22;7534;50.762;7.000;2023-07-09T05:33:18;27.50;92.30
14884;DHT22;7534;50.762;7.000;2023-07-09T05:35:45;28.80;90.50
14884;DHT22;7534;50.762;7.000;2023-07-09T05:38:11;29.90;86.80
14884;DHT22;7534;50.762;7.000;2023-07-09T05:40:38;29.50;85.30
14884;DHT22;7534;50.762;7.000;2023-07-09T05:43:04;28.80;87.00
14884;DHT22;7534;50.762;7.000;2023-07-09T05:45:31;27.80;89.40
14884;DHT22;7534;50.762;7.000;2023-07-09T05:47:58;27.20;91.20
14884;DHT22;7534;50.762;7.000;2023-07-09T05:50:25;26.60;92.10
14884;DHT22;7534;50.762;7.000;2023-07-09T05:52:51;26.30;92.90
14884;DHT22;7534;50.762;7.000;2023-07-09T05:55:17;25.80;93.40
14884;DHT22;7534;50.762;7.000;2023-07-09T05:57:43;25.70;94.00
14884;DHT22;7534;50.762;7.000;2023-07-09T06:00:09;25.70;94.10
14884;DHT22;7534;50.762;7.000;2023-07-09T06:02:36;25.70;94.30
14884;DHT22;7534;50.762;7.000;2023-07-09T06:05:03;25.80;94.30
14884;DHT22;7534;50.762;7.000;2023-07-09T06:07:28;25.80;94.10
14884;DHT22;7534;50.762;7.000;2023-07-09T06:09:54;25.90;93.70
14884;DHT22;7534;50.762;7.000;2023-07-09T06:12:20;26.10;93.50
14884;DHT22;7534;50.762;7.000;2023-07-09T06:14:46;26.30;93.60
14884;DHT22;7534;50.762;7.000;2023-07-09T06:17:12;26.50;93.40
14884;DHT22;7534;50.762;7.000;2023-07-09T06:19:38;26.60;92.90
14884;DHT22;7534;50.762;7.000;2023-07-09T06:22:05;26.60;92.90
14884;DHT22;7534;50.762;7.000;2023-07-09T06:24:31;26.70;92.60
14884;DHT22;7534;50.762;7.000;2023-07-09T06:26:56;26.70;92.50
14884;DHT22;7534;50.762;7.000;2023-07-09T06:29:22;26.80;92.40
14884;DHT22;7534;50.762;7.000;2023-07-09T06:31:48;26.90;92.40
14884;DHT22;7534;50.762;7.000;2023-07-09T06:34:14;27.20;91.40
14884;DHT22;7534;50.762;7.000;2023-07-09T06:36:40;27.20;91.20
14884;DHT22;7534;50.762;7.000;2023-07-09T06:39:05;27.40;91.00
14884;DHT22;7534;50.762;7.000;2023-07-09T06:41:38;27.60;90.80
14884;DHT22;7534;50.762;7.000;2023-07-09T06:44:08;27.70;90.30
14884;DHT22;7534;50.762;7.000;2023-07-09T06:46:37;28.10;89.60
14884;DHT22;7534;50.762;7.000;2023-07-09T06:49:03;28.10;88.70
14884;DHT22;7534;50.762;7.000;2023-07-09T06:51:32;28.10;88.10
14884;DHT22;7534;50.762;7.000;2023-07-09T06:53:58;28.30;88.30
14884;DHT22;7534;50.762;7.000;2023-07-09T06:56:24;28.60;87.40
14884;DHT22;7534;50.762;7.000;2023-07-09T06:58:50;29.10;85.40
14884;DHT22;7534;50.762;7.000;2023-07-09T07:01:15;30.80;81.00
14884;DHT22;7534;50.762;7.000;2023-07-09T07:03:41;32.80;74.30
14884;DHT22;7534;50.762;7.000;2023-07-09T07:06:07;34.50;67.00
14884;DHT22;7534;50.762;7.000;2023-07-09T07:08:33;35.80;59.90
14884;DHT22;7534;50.762;7.000;2023-07-09T07:11:02;37.10;55.70
14884;DHT22;7534;50.762;7.000;2023-07-09T07:13:31;37.50;51.90
14884;DHT22;7534;50.762;7.000;2023-07-09T07:16:01;38.20;50.50
14884;DHT22;7534;50.762;7.000;2023-07-09T07:18:34;38.50;48.20
14884;DHT22;7534;50.762;7.000;2023-07-09T07:21:00;39.00;47.00
14884;DHT22;7534;50.762;7.000;2023-07-09T07:23:27;40.10;45.40
14884;DHT22;7534;50.762;7.000;2023-07-09T07:25:53;41.00;42.60
14884;DHT22;7534;50.762;7.000;2023-07-09T07:28:20;40.90;42.00
14884;DHT22;7534;50.762;7.000;2023-07-09T07:30:47;41.40;40.60
14884;DHT22;7534;50.762;7.000;2023-07-09T07:33:23;41.90;39.70
14884;DHT22;7534;50.762;7.000;2023-07-09T07:35:48;42.60;38.40
14884;DHT22;7534;50.762;7.000;2023-07-09T07:38:14;43.50;36.60
14884;DHT22;7534;50.762;7.000;2023-07-09T07:40:44;44.10;34.40
14884;DHT22;7534;50.762;7.000;2023-07-09T07:43:10;43.60;35.00
14884;DHT22;7534;50.762;7.000;2023-07-09T07:45:40;44.00;34.30
14884;DHT22;7534;50.762;7.000;2023-07-09T07:48:07;43.70;33.90
14884;DHT22;7534;50.762;7.000;2023-07-09T07:50:33;44.00;33.40
14884;DHT22;7534;50.762;7.000;2023-07-09T07:52:58;44.50;33.30
14884;DHT22;7534;50.762;7.000;2023-07-09T07:55:24;44.00;32.90
14884;DHT22;7534;50.762;7.000;2023-07-09T07:57:50;43.50;33.00
14884;DHT22;7534;50.762;7.000;2023-07-09T08:00:16;43.70;33.20
14884;DHT22;7534;50.762;7.000;2023-07-09T08:02:42;44.20;32.20
14884;DHT22;7534;50.762;7.000;2023-07-09T08:05:08;44.50;31.50
14884;DHT22;7534;50.762;7.000;2023-07-09T08:07:34;44.20;32.00
14884;DHT22;7534;50.762;7.000;2023-07-09T08:10:00;44.20;32.10
14884;DHT22;7534;50.762;7.000;2023-07-09T08:12:25;44.60;31.90
14884;DHT22;7534;50.762;7.000;2023-07-09T08:14:51;44.80;31.00
14884;DHT22;7534;50.762;7.000;2023-07-09T08:17:17;45.60;30.60
14884;DHT22;7534;50.762;7.000;2023-07-09T08:19:53;45.10;30.30
14884;DHT22;7534;50.762;7.000;2023-07-09T08:22:20;45.50;29.90
14884;DHT22;7534;50.762;7.000;2023-07-09T08:24:47;46.30;28.50
14884;DHT22;7534;50.762;7.000;2023-07-09T08:27:14;45.80;29.20
14884;DHT22;7534;50.762;7.000;2023-07-09T08:29:40;45.50;29.60
14884;DHT22;7534;50.762;7.000;2023-07-09T08:32:08;45.70;29.20
14884;DHT22;7534;50.762;7.000;2023-07-09T08:34:36;45.30;29.60
14884;DHT22;7534;50.762;7.000;2023-07-09T08:37:03;44.70;29.60
14884;DHT22;7534;50.762;7.000;2023-07-09T08:39:29;44.20;30.30
14884;DHT22;7534;50.762;7.000;2023-07-09T08:42:07;44.10;30.70
14884;DHT22;7534;50.762;7.000;2023-07-09T08:44:43;44.40;30.40
14884;DHT22;7534;50.762;7.000;2023-07-09T08:47:40;45.30;29.50
14884;DHT22;7534;50.762;7.000;2023-07-09T08:50:35;45.30;29.50
14884;DHT22;7534;50.762;7.000;2023-07-09T08:53:04;45.30;29.30
14884;DHT22;7534;50.762;7.000;2023-07-09T08:55:33;45.50;29.50
14884;DHT22;7534;50.762;7.000;2023-07-09T08:58:24;45.90;28.90
14884;DHT22;7534;50.762;7.000;2023-07-09T09:00:54;46.80;28.20
14884;DHT22;7534;50.762;7.000;2023-07-09T09:06:15;45.20;29.20
14884;DHT22;7534;50.762;7.000;2023-07-09T09:11:43;45.70;29.20
14884;DHT22;7534;50.762;7.000;2023-07-09T09:14:30;46.40;28.90
14884;DHT22;7534;50.762;7.000;2023-07-09T09:16:58;46.30;28.60
14884;DHT22;7534;50.762;7.000;2023-07-09T09:22:05;46.40;28.60
14884;DHT22;7534;50.762;7.000;2023-07-09T09:24:43;46.10;28.70
14884;DHT22;7534;50.762;7.000;2023-07-09T09:27:30;46.40;28.50
14884;DHT22;7534;50.762;7.000;2023-07-09T09:29:55;46.50;28.20
14884;DHT22;7534;50.762;7.000;2023-07-09T09:32:25;45.90;28.60
14884;DHT22;7534;50.762;7.000;2023-07-09T09:34:52;45.70;29.10
14884;DHT22;7534;50.762;7.000;2023-07-09T09:37:28;45.40;29.10
14884;DHT22;7534;50.762;7.000;2023-07-09T09:39:57;45.00;29.60
14884;DHT22;7534;50.762;7.000;2023-07-09T09:42:25;44.70;30.00
14884;DHT22;7534;50.762;7.000;2023-07-09T09:44:54;44.70;29.70
14884;DHT22;7534;50.762;7.000;2023-07-09T09:47:21;44.90;29.80
14884;DHT22;7534;50.762;7.000;2023-07-09T09:49:46;44.90;29.80
14884;DHT22;7534;50.762;7.000;2023-07-09T09:52:15;44.20;30.00
14884;DHT22;7534;50.762;7.000;2023-07-09T09:54:54;43.50;31.20
14884;DHT22;7534;50.762;7.000;2023-07-09T09:57:27;43.20;31.20
14884;DHT22;7534;50.762;7.000;2023-07-09T09:59:56;43.70;31.20
14884;DHT22;7534;50.762;7.000;2023-07-09T10:02:25;43.90;31.00
14884;DHT22;7534;50.762;7.000;2023-07-09T10:04:51;43.80;30.90
14884;DHT22;7534;50.762;7.000;2023-07-09T10:07:38;43.60;31.10
14884;DHT22;7534;50.762;7.000;2023-07-09T10:10:19;42.90;31.70
14884;DHT22;7534;50.762;7.000;2023-07-09T10:12:53;42.60;32.10
14884;DHT22;7534;50.762;7.000;2023-07-09T10:27:22;43.60;28.80
14884;DHT22;7534;50.762;7.000;2023-07-09T10:33:01;44.40;27.10
14884;DHT22;7534;50.762;7.000;2023-07-09T10:35:45;45.20;26.50
14884;DHT22;7534;50.762;7.000;2023-07-09T10:41:17;45.70;25.70
14884;DHT22;7534;50.762;7.000;2023-07-09T10:43:52;46.20;25.10
14884;DHT22;7534;50.762;7.000;2023-07-09T10:46:27;46.30;24.60
14884;DHT22;7534;50.762;7.000;2023-07-09T10:48:56;46.00;24.40
14884;DHT22;7534;50.762;7.000;2023-07-09T10:51:31;46.10;24.20
14884;DHT22;7534;50.762;7.000;2023-07-09T10:57:46;44.80;25.20
14884;DHT22;7534;50.762;7.000;2023-07-09T11:00:36;44.50;24.70
14884;DHT22;7534;50.762;7.000;2023-07-09T11:03:20;43.90;25.00
14884;DHT22;7534;50.762;7.000;2023-07-09T11:05:54;43.80;26.10
14884;DHT22;7534;50.762;7.000;2023-07-09T11:08:36;43.80;25.90
14884;DHT22;7534;50.762;7.000;2023-07-09T11:11:10;43.60;25.60
14884;DHT22;7534;50.762;7.000;2023-07-09T11:13:55;42.90;25.80
14884;DHT22;7534;50.762;7.000;2023-07-09T11:16:32;42.50;26.60
14884;DHT22;7534;50.762;7.000;2023-07-09T11:19:06;42.10;26.70
14884;DHT22;7534;50.762;7.000;2023-07-09T11:22:03;41.90;27.00
14884;DHT22;7534;50.762;7.000;2023-07-09T11:24:44;41.70;27.00
14884;DHT22;7534;50.762;7.000;2023-07-09T11:27:21;41.80;28.00
14884;DHT22;7534;50.762;7.000;2023-07-09T11:29:59;41.60;27.70
14884;DHT22;7534;50.762;7.000;2023-07-09T11:32:47;41.50;27.80
14884;DHT22;7534;50.762;7.000;2023-07-09T11:35:22;40.90;27.30
14884;DHT22;7534;50.762;7.000;2023-07-09T11:37:50;40.90;28.00
14884;DHT22;7534;50.762;7.000;2023-07-09T11:40:19;40.60;28.10
14884;DHT22;7534;50.762;7.000;2023-07-09T11:42:53;40.60;27.70
14884;DHT22;7534;50.762;7.000;2023-07-09T11:45:26;40.60;27.70
14884;DHT22;7534;50.762;7.000;2023-07-09T11:50:51;40.90;28.20
14884;DHT22;7534;50.762;7.000;2023-07-09T11:53:41;40.60;28.20
14884;DHT22;7534;50.762;7.000;2023-07-09T11:56:12;40.50;27.40
14884;DHT22;7534;50.762;7.000;2023-07-09T11:58:51;40.80;27.70
14884;DHT22;7534;50.762;7.000;2023-07-09T12:01:23;41.00;27.40
14884;DHT22;7534;50.762;7.000;2023-07-09T12:03:52;41.10;27.40
14884;DHT22;7534;50.762;7.000;2023-07-09T12:06:23;40.80;27.40
14884;DHT22;7534;50.762;7.000;2023-07-09T12:08:52;40.90;28.10
14884;DHT22;7534;50.762;7.000;2023-07-09T12:11:31;40.60;28.80
14884;DHT22;7534;50.762;7.000;2023-07-09T12:14:03;40.40;28.60
14884;DHT22;7534;50.762;7.000;2023-07-09T12:17:00;40.20;29.10
14884;DHT22;7534;50.762;7.000;2023-07-09T12:19:31;39.90;29.60
14884;DHT22;7534;50.762;7.000;2023-07-09T12:21:57;40.00;30.00
14884;DHT22;7534;50.762;7.000;2023-07-09T12:24:29;40.30;30.10
14884;DHT22;7534;50.762;7.000;2023-07-09T12:27:14;40.40;30.00
14884;DHT22;7534;50.762;7.000;2023-07-09T12:29:43;40.80;30.50
14884;DHT22;7534;50.762;7.000;2023-07-09T12:32:14;40.80;29.10
14884;DHT22;7534;50.762;7.000;2023-07-09T12:34:41;40.80;29.10
14884;DHT22;7534;50.762;7.000;2023-07-09T12:37:13;40.70;28.50
14884;DHT22;7534;50.762;7.000;2023-07-09T12:39:41;40.40;28.70
14884;DHT22;7534;50.762;7.000;2023-07-09T12:42:16;40.10;28.90
14884;DHT22;7534;50.762;7.000;2023-07-09T12:44:45;40.10;29.10
14884;DHT22;7534;50.762;7.000;2023-07-09T12:47:14;40.00;29.10
14884;DHT22;7534;50.762;7.000;2023-07-09T12:49:43;40.00;28.80
14884;DHT22;7534;50.762;7.000;2023-07-09T12:52:18;40.00;28.70
14884;DHT22;7534;50.762;7.000;2023-07-09T12:55:00;40.00;28.80
14884;DHT22;7534;50.762;7.000;2023-07-09T12:57:30;40.20;30.30
14884;DHT22;7534;50.762;7.000;2023-07-09T12:59:57;40.50;29.80
14884;DHT22;7534;50.762;7.000;2023-07-09T13:02:26;41.00;29.20
14884;DHT22;7534;50.762;7.000;2023-07-09T13:05:06;41.60;28.20
14884;DHT22;7534;50.762;7.000;2023-07-09T13:07:47;41.40;27.70
14884;DHT22;7534;50.762;7.000;2023-07-09T13:10:19;41.40;27.70
14884;DHT22;7534;50.762;7.000;2023-07-09T13:12:54;40.90;27.80
14884;DHT22;7534;50.762;7.000;2023-07-09T13:18:04;40.70;28.30
14884;DHT22;7534;50.762;7.000;2023-07-09T13:20:34;40.40;28.30
14884;DHT22;7534;50.762;7.000;2023-07-09T13:23:12;40.20;28.30
14884;DHT22;7534;50.762;7.000;2023-07-09T13:25:40;39.90;28.90
14884;DHT22;7534;50.762;7.000;2023-07-09T13:28:27;39.80;28.70
14884;DHT22;7534;50.762;7.000;2023-07-09T13:31:13;39.30;28.90
14884;DHT22;7534;50.762;7.000;2023-07-09T13:33:45;38.60;29.40
14884;DHT22;7534;50.762;7.000;2023-07-09T13:36:17;38.50;30.00
14884;DHT22;7534;50.762;7.000;2023-07-09T13:38:43;38.50;31.30
14884;DHT22;7534;50.762;7.000;2023-07-09T13:41:18;38.50;32.30
14884;DHT22;7534;50.762;7.000;2023-07-09T13:43:48;38.40;33.90
14884;DHT22;7534;50.762;7.000;2023-07-09T13:46:15;38.30;34.70
14884;DHT22;7534;50.762;7.000;2023-07-09T13:48:43;38.40;34.80
14884;DHT22;7534;50.762;7.000;2023-07-09T13:51:21;38.50;36.20
14884;DHT22;7534;50.762;7.000;2023-07-09T13:53:54;38.70;33.80
14884;DHT22;7534;50.762;7.000;2023-07-09T13:56:23;38.90;32.80
14884;DHT22;7534;50.762;7.000;2023-07-09T13:58:51;39.30;34.20
14884;DHT22;7534;50.762;7.000;2023-07-09T14:01:21;39.50;32.00
14884;DHT22;7534;50.762;7.000;2023-07-09T14:03:48;39.60;33.60
14884;DHT22;7534;50.762;7.000;2023-07-09T14:06:16;39.50;32.70
14884;DHT22;7534;50.762;7.000;2023-07-09T14:08:42;39.80;33.30
14884;DHT22;7534;50.762;7.000;2023-07-09T14:11:10;39.70;33.20
14884;DHT22;7534;50.762;7.000;2023-07-09T14:13:38;39.40;32.00
14884;DHT22;7534;50.762;7.000;2023-07-09T14:16:05;39.10;32.50
14884;DHT22;7534;50.762;7.000;2023-07-09T14:18:31;38.70;33.10
14884;DHT22;7534;50.762;7.000;2023-07-09T14:20:57;38.10;33.00
14884;DHT22;7534;50.762;7.000;2023-07-09T14:23:23;37.80;34.00
14884;DHT22;7534;50.762;7.000;2023-07-09T14:25:49;37.50;34.20
14884;DHT22;7534;50.762;7.000;2023-07-09T14:28:17;37.00;34.40
14884;DHT22;7534;50.762;7.000;2023-07-09T14:30:46;36.50;35.60
14884;DHT22;7534;50.762;7.000;2023-07-09T14:33:16;36.10;35.80
14884;DHT22;7534;50.762;7.000;2023-07-09T14:35:45;34.60;56.10
14884;DHT22;7534;50.762;7.000;2023-07-09T14:38:21;34.00;66.90
14884;DHT22;7534;50.762;7.000;2023-07-09T14:43:19;30.80;68.70
14884;DHT22;7534;50.762;7.000;2023-07-09T14:45:45;31.20;93.20
14884;DHT22;7534;50.762;7.000;2023-07-09T14:53:24;28.60;76.40
14884;DHT22;7534;50.762;7.000;2023-07-09T14:55:54;28.30;91.60
14884;DHT22;7534;50.762;7.000;2023-07-09T14:58:22;28.00;86.80
14884;DHT22;7534;50.762;7.000;2023-07-09T15:00:49;27.80;91.00
14884;DHT22;7534;50.762;7.000;2023-07-09T15:03:23;27.60;93.30
14884;DHT22;7534;50.762;7.000;2023-07-09T15:05:52;27.50;94.90
14884;DHT22;7534;50.762;7.000;2023-07-09T15:08:21;27.40;95.90
14884;DHT22;7534;50.762;7.000;2023-07-09T15:10:49;27.50;96.80
14884;DHT22;7534;50.762;7.000;2023-07-09T15:13:21;27.50;96.70
14884;DHT22;7534;50.762;7.000;2023-07-09T15:15:57;27.40;96.80
14884;DHT22;7534;50.762;7.000;2023-07-09T15:18:24;27.40;97.20
14884;DHT22;7534;50.762;7.000;2023-07-09T15:20:56;27.40;96.70
14884;DHT22;7534;50.762;7.000;2023-07-09T15:23:23;27.30;96.70
14884;DHT22;7534;50.762;7.000;2023-07-09T15:25:51;27.40;96.60
14884;DHT22;7534;50.762;7.000;2023-07-09T15:28:17;27.30;97.50
14884;DHT22;7534;50.762;7.000;2023-07-09T15:30:43;27.10;98.40
14884;DHT22;7534;50.762;7.000;2023-07-09T15:33:15;27.00;98.50
14884;DHT22;7534;50.762;7.000;2023-07-09T15:35:44;26.70;99.60
14884;DHT22;7534;50.762;7.000;2023-07-09T15:40:44;26.50;99.90
14884;DHT22;7534;50.762;7.000;2023-07-09T15:43:11;26.30;99.90
14884;DHT22;7534;50.762;7.000;2023-07-09T15:45:43;26.10;99.90
14884;DHT22;7534;50.762;7.000;2023-07-09T15:48:22;26.00;99.90
14884;DHT22;7534;50.762;7.000;2023-07-09T15:50:58;25.80;99.90
14884;DHT22;7534;50.762;7.000;2023-07-09T15:53:25;25.50;99.90
14884;DHT22;7534;50.762;7.000;2023-07-09T15:55:58;25.40;99.90
14884;DHT22;7534;50.762;7.000;2023-07-09T15:58:52;25.30;99.90
14884;DHT22;7534;50.762;7.000;2023-07-09T16:01:19;25.00;99.90
14884;DHT22;7534;50.762;7.000;2023-07-09T16:03:53;24.80;99.90
14884;DHT22;7534;50.762;7.000;2023-07-09T16:06:23;24.70;99.90
14884;DHT22;7534;50.762;7.000;2023-07-09T16:08:49;24.80;99.90
14884;DHT22;7534;50.762;7.000;2023-07-09T16:11:21;24.70;99.90
14884;DHT22;7534;50.762;7.000;2023-07-09T16:13:49;24.30;99.90
14884;DHT22;7534;50.762;7.000;2023-07-09T16:16:18;24.20;99.90
14884;DHT22;7534;50.762;7.000;2023-07-09T16:18:46;24.00;99.90
14884;DHT22;7534;50.762;7.000;2023-07-09T16:21:31;24.20;99.90
14884;DHT22;7534;50.762;7.000;2023-07-09T16:23:59;24.20;99.90
14884;DHT22;7534;50.762;7.000;2023-07-09T16:26:27;24.00;99.90
14884;DHT22;7534;50.762;7.000;2023-07-09T16:28:53;24.00;99.90
14884;DHT22;7534;50.762;7.000;2023-07-09T16:31:19;23.90;99.90
14884;DHT22;7534;50.762;7.000;2023-07-09T16:33:45;23.70;99.90
14884;DHT22;7534;50.762;7.000;2023-07-09T16:36:15;23.70;99.90
14884;DHT22;7534;50.762;7.000;2023-07-09T16:38:42;23.70;99.90
14884;DHT22;7534;50.762;7.000;2023-07-09T16:41:11;23.70;99.90
14884;DHT22;7534;50.762;7.000;2023-07-09T16:43:38;23.70;99.90
14884;DHT22;7534;50.762;7.000;2023-07-09T16:46:23;23.80;99.90
14884;DHT22;7534;50.762;7.000;2023-07-09T16:48:49;23.90;99.90
14884;DHT22;7534;50.762;7.000;2023-07-09T16:51:16;23.80;99.90
14884;DHT22;7534;50.762;7.000;2023-07-09T16:53:42;24.10;99.90
14884;DHT22;7534;50.762;7.000;2023-07-09T16:56:12;24.40;99.90